Aviation Digital Data Service (ADDS)

Output produced by TAFs form (0429 UTC 23 November 2014)
found at http://aviationweather.gov/adds/tafs/
 
KTUS 222326Z 2300/2324 29008KT P6SM BKN250 
     FM230600 15006KT P6SM SCT250 
     FM231900 29008KT P6SM FEW150 BKN250 
     FM232100 31010G18KT P6SM FEW150 BKN250